Cowlington, Oklahoma
Current Conditions -  °F | °C
As of 9:55 AM on Monday 22 Dec 2014 (Local Time) from KGZL Reporting Station
Overcast Overcast  
Wind Chill: 10°   Ceiling: 2100
Heat Index: 10°   Visibility: 8mi
Dew Point:   Wind: 6mph
Humidity: 87%   Direction: 120°ESE
Pressure: 29.61"   Gusts: NA
Location:  35.2597°N, 94.8795°W
Report Text: KGZL 221555Z AUTO 12005KT 8SM BKN021 OVC025 10/08 A2961 RMK AO2
Loading
Personal Weather Stations






























Interactive Weather Map New forecast layout! Learn more

10-Day Weather Forecast

Advertisements
Track Severe Weather on mobile